createdAt,value
2022-12-24T00:05:07.686Z,1.27
2022-12-24T00:10:30.934Z,1.25
2022-12-24T00:15:52.749Z,1.24
2022-12-24T00:21:18.511Z,1.31
2022-12-24T00:26:40.663Z,1.26
2022-12-24T00:32:03.004Z,1.31
2022-12-24T00:37:24.934Z,1.27
2022-12-24T00:42:47.557Z,1.25
2022-12-24T00:48:09.636Z,1.37
2022-12-24T00:53:31.618Z,1.26
2022-12-24T00:58:54.172Z,1.40
2022-12-24T01:04:34.771Z,1.27
2022-12-24T01:09:57.238Z,1.27
2022-12-24T01:15:19.304Z,1.30
2022-12-24T01:20:41.704Z,1.32
2022-12-24T01:26:05.532Z,1.44
2022-12-24T01:31:27.719Z,1.35
2022-12-24T01:36:49.815Z,1.40
2022-12-24T01:42:42.783Z,1.46
2022-12-24T01:48:06.437Z,1.45
2022-12-24T01:53:29.684Z,1.44
2022-12-24T01:58:58.456Z,1.42
2022-12-24T02:04:32.794Z,1.25
2022-12-24T02:09:58.414Z,1.33
2022-12-24T02:15:21.691Z,1.42
2022-12-24T02:21:22.086Z,1.40
2022-12-24T02:27:25.512Z,1.43
2022-12-24T02:33:23.792Z,1.37
2022-12-24T02:38:52.633Z,1.25
2022-12-24T02:44:15.793Z,1.36
2022-12-24T02:49:39.016Z,1.36
2022-12-24T02:55:05.857Z,1.36
2022-12-24T03:00:31.628Z,1.36
2022-12-24T03:06:13.561Z,1.32
2022-12-24T03:11:39.284Z,1.30
2022-12-24T03:17:03.672Z,1.29
2022-12-24T03:22:27.195Z,1.38
2022-12-24T03:27:49.591Z,1.28
2022-12-24T03:33:13.552Z,1.32
2022-12-24T03:38:36.158Z,1.31
2022-12-24T03:43:58.088Z,1.32
2022-12-24T03:49:20.467Z,1.31
2022-12-24T03:54:42.344Z,1.34
2022-12-24T04:00:06.586Z,1.33
2022-12-24T04:05:33.817Z,1.40
2022-12-24T04:10:56.077Z,1.42
2022-12-24T04:16:18.294Z,1.36
2022-12-24T04:21:40.472Z,1.42
2022-12-24T04:27:02.409Z,1.34
2022-12-24T04:32:25.527Z,1.34
2022-12-24T04:37:47.462Z,1.33
2022-12-24T04:43:09.797Z,1.29
2022-12-24T04:48:33.474Z,1.28
2022-12-24T04:53:56.648Z,1.28
2022-12-24T04:59:18.920Z,1.33
2022-12-24T05:04:41.343Z,1.24
2022-12-24T05:10:04.089Z,1.31
2022-12-24T05:15:27.816Z,1.31
2022-12-24T05:20:50.263Z,1.25
2022-12-24T05:26:33.831Z,1.33
2022-12-24T05:31:55.990Z,1.25
2022-12-24T05:37:18.391Z,1.34
2022-12-24T05:42:40.199Z,1.33
2022-12-24T05:48:02.292Z,1.28
2022-12-24T05:53:24.443Z,1.36
2022-12-24T05:58:46.693Z,1.33
2022-12-24T06:04:08.640Z,1.28
2022-12-24T06:09:30.558Z,1.36
2022-12-24T06:14:52.968Z,1.36
2022-12-24T06:20:15.142Z,1.24
2022-12-24T06:25:37.111Z,1.33
2022-12-24T06:31:02.965Z,1.39
2022-12-24T06:36:26.832Z,1.33
2022-12-24T06:41:52.182Z,1.37
2022-12-24T06:47:14.293Z,1.32
2022-12-24T06:52:36.514Z,1.42
2022-12-24T06:57:58.934Z,1.29
2022-12-24T07:03:21.407Z,1.34
2022-12-24T07:08:44.502Z,1.41
2022-12-24T07:14:07.303Z,1.45
2022-12-24T07:19:30.522Z,1.42
2022-12-24T07:24:52.610Z,1.49
2022-12-24T07:30:15.111Z,1.51
2022-12-24T07:35:39.565Z,1.56
2022-12-24T07:41:01.991Z,1.56
2022-12-24T07:46:27.078Z,1.50
2022-12-24T07:51:49.244Z,1.54
2022-12-24T07:57:11.300Z,1.63
2022-12-24T08:02:37.552Z,1.52
2022-12-24T08:07:59.762Z,1.52
2022-12-24T08:13:21.991Z,1.58
2022-12-24T08:18:44.370Z,1.50
2022-12-24T08:24:07.323Z,1.50
2022-12-24T08:29:29.752Z,1.61
2022-12-24T08:34:51.521Z,1.47
2022-12-24T08:40:14.012Z,1.64
2022-12-24T08:45:40.889Z,1.58
2022-12-24T08:51:11.233Z,1.55
2022-12-24T08:56:32.735Z,1.61
2022-12-24T09:01:54.464Z,1.53
2022-12-24T09:07:16.673Z,1.54
2022-12-24T09:12:39.239Z,1.51
2022-12-24T09:18:02.067Z,1.51
2022-12-24T09:23:23.817Z,1.46
2022-12-24T09:28:46.171Z,1.50
2022-12-24T09:34:08.443Z,1.40
2022-12-24T09:39:31.344Z,1.42
2022-12-24T09:45:14.307Z,1.36
2022-12-24T09:50:46.449Z,1.35
2022-12-24T09:56:19.837Z,1.31
2022-12-24T10:01:42.567Z,1.27
2022-12-24T10:07:10.588Z,1.23
2022-12-24T10:12:36.986Z,1.10
2022-12-24T10:18:07.818Z,1.13
2022-12-24T10:23:39.622Z,0.95
2022-12-24T10:29:09.736Z,1.02
2022-12-24T10:35:15.515Z,0.97
2022-12-24T10:40:51.362Z,0.93
2022-12-24T10:46:43.491Z,0.92
2022-12-24T10:52:14.624Z,0.71
2022-12-24T10:57:37.413Z,0.75
2022-12-24T11:03:23.917Z,0.83
2022-12-24T11:08:46.653Z,0.78
2022-12-24T11:14:17.440Z,0.64
2022-12-24T11:19:40.628Z,0.58
2022-12-24T11:25:08.633Z,0.56
2022-12-24T11:30:34.323Z,0.60
2022-12-24T11:36:03.322Z,0.66
2022-12-24T11:41:26.918Z,0.73
2022-12-24T11:46:52.850Z,0.69
2022-12-24T11:52:23.194Z,0.69
2022-12-24T11:58:01.346Z,0.70
2022-12-24T12:03:38.961Z,0.70
2022-12-24T12:09:06.381Z,0.71
2022-12-24T12:14:42.815Z,0.69
2022-12-24T12:20:25.824Z,0.67
2022-12-24T12:25:56.587Z,0.64
2022-12-24T12:31:34.588Z,0.67
2022-12-24T12:37:09.662Z,0.66
2022-12-24T12:42:40.482Z,0.66
2022-12-24T12:48:38.811Z,0.63
2022-12-24T12:54:38.724Z,0.47
2022-12-24T13:00:18.144Z,0.46
2022-12-24T13:11:54.488Z,0.53
2022-12-24T13:17:34.892Z,0.68
2022-12-24T13:23:03.047Z,0.69
2022-12-24T13:28:30.892Z,0.71
2022-12-24T13:34:00.674Z,0.60
2022-12-24T13:45:45.833Z,0.63
2022-12-24T13:51:26.090Z,0.64
2022-12-24T13:56:48.503Z,0.69
2022-12-24T14:02:22.892Z,0.75
2022-12-24T14:07:51.415Z,0.79
2022-12-24T14:13:41.631Z,0.79
2022-12-24T14:19:03.888Z,0.83
2022-12-24T14:24:32.241Z,0.81
2022-12-24T14:30:07.402Z,0.75
2022-12-24T14:35:36.344Z,0.72
2022-12-24T14:41:09.536Z,0.79
2022-12-24T14:46:49.637Z,0.92
2022-12-24T14:52:54.589Z,0.90
2022-12-24T14:58:31.905Z,0.90
2022-12-24T15:04:03.771Z,0.87
2022-12-24T15:09:29.967Z,0.86
2022-12-24T15:14:51.974Z,0.82
2022-12-24T15:20:24.479Z,0.85
2022-12-24T15:25:46.433Z,0.80
2022-12-24T15:31:23.689Z,0.76
2022-12-24T15:36:46.116Z,0.86
2022-12-24T15:42:19.308Z,0.71
2022-12-24T15:47:54.946Z,0.82
2022-12-24T15:53:41.257Z,0.65
2022-12-24T15:59:32.806Z,0.79
2022-12-24T16:04:55.897Z,0.72
2022-12-24T16:10:26.169Z,0.66
2022-12-24T16:15:56.064Z,0.66
2022-12-24T16:21:24.185Z,0.80
2022-12-24T16:26:46.736Z,0.64
2022-12-24T16:32:29.096Z,0.65
2022-12-24T16:37:51.206Z,0.72
2022-12-24T16:43:31.698Z,0.80
2022-12-24T16:48:53.755Z,0.70
2022-12-24T16:54:16.163Z,0.75
2022-12-24T16:59:38.400Z,0.73
2022-12-24T17:05:00.206Z,0.81
2022-12-24T17:10:22.132Z,0.80
2022-12-24T17:15:43.968Z,0.83
2022-12-24T17:21:07.364Z,0.82
2022-12-24T17:26:29.665Z,0.85
2022-12-24T17:31:52.048Z,0.85
2022-12-24T17:42:56.712Z,0.82
2022-12-24T17:48:19.006Z,0.82
2022-12-24T17:53:43.050Z,0.79
2022-12-24T17:59:05.410Z,0.86
2022-12-24T18:04:27.429Z,0.88
2022-12-24T18:09:49.734Z,0.90
2022-12-24T18:15:12.817Z,0.84
2022-12-24T18:20:41.101Z,0.90
2022-12-24T18:26:06.672Z,0.81
2022-12-24T18:31:30.330Z,0.79
2022-12-24T18:36:55.397Z,0.80
2022-12-24T18:42:18.235Z,0.78
2022-12-24T18:47:40.530Z,0.89
2022-12-24T18:53:03.083Z,0.78
2022-12-24T18:58:25.238Z,0.78
2022-12-24T19:03:48.474Z,0.88
2022-12-24T19:09:16.635Z,0.95
2022-12-24T19:14:46.480Z,0.86
2022-12-24T19:20:12.293Z,0.79
2022-12-24T19:25:36.222Z,0.77
2022-12-24T19:31:05.056Z,0.87
2022-12-24T19:36:30.590Z,0.94
2022-12-24T19:41:55.341Z,0.69
2022-12-24T19:47:17.691Z,0.92
2022-12-24T19:52:41.794Z,0.89
2022-12-24T19:58:04.301Z,0.69
2022-12-24T20:03:26.827Z,0.82
2022-12-24T20:08:49.666Z,0.69
2022-12-24T20:14:13.038Z,0.68
2022-12-24T20:19:37.904Z,0.76
2022-12-24T20:25:00.496Z,0.78
2022-12-24T20:30:23.066Z,0.94
2022-12-24T20:35:47.599Z,0.96
2022-12-24T20:41:11.646Z,0.93
2022-12-24T20:46:33.757Z,0.92
2022-12-24T20:51:56.122Z,0.88
2022-12-24T20:57:25.154Z,0.82
2022-12-24T21:02:49.174Z,0.79
2022-12-24T21:08:12.947Z,0.83
2022-12-24T21:13:35.212Z,0.75
2022-12-24T21:18:57.438Z,0.70
2022-12-24T21:24:19.382Z,0.63
2022-12-24T21:29:42.221Z,0.64
2022-12-24T21:41:15.294Z,0.54
2022-12-24T21:46:37.468Z,0.55
2022-12-24T21:52:02.588Z,0.56
2022-12-24T21:57:43.631Z,0.57
2022-12-24T22:03:06.189Z,0.48
2022-12-24T22:08:47.800Z,0.52
2022-12-24T22:14:10.101Z,0.38
2022-12-24T22:19:32.975Z,0.40
2022-12-24T22:24:56.222Z,0.28
2022-12-24T22:30:33.516Z,0.28
2022-12-24T22:35:55.739Z,0.06
2022-12-24T22:41:18.343Z,0.16
2022-12-24T22:46:40.090Z,0.08
2022-12-24T22:52:02.563Z,0.04
2022-12-24T22:57:24.422Z,0.02
2022-12-24T23:02:46.290Z,-0.04
2022-12-24T23:08:09.024Z,0.09
2022-12-24T23:13:49.673Z,0.03
2022-12-24T23:19:12.009Z,0.18
2022-12-24T23:24:35.665Z,0.08
2022-12-24T23:29:57.422Z,0.17
2022-12-24T23:35:27.814Z,0.14
2022-12-24T23:41:07.942Z,0.07
2022-12-24T23:46:33.020Z,-0.10
2022-12-24T23:51:55.786Z,-0.18
2022-12-24T23:57:18.166Z,-0.32
